Time;durP1;ratioP1;P1;durP2;ratioP2;P2;SDS_P1;SDS_P2;PMS_P1;PMS_P2;Temp;Humidity;BMP_temperature;BMP_pressure;BME280_temperature;BME280_humidity;BME280_pressure;Samples;Min_cycle;Max_cycle;Signal;HPM_P1;HPM_P2
2022/08/17 00:01:17;;;;;;;16.73;12.77;;;23.40;99.90;;;;;;5001152;28;20226;-73
2022/08/17 00:03:46;;;;;;;15.88;12.63;;;23.40;99.90;;;;;;5004378;28;20199;-74
2022/08/17 00:06:15;;;;;;;14.02;11.38;;;23.30;99.90;;;;;;4992528;28;20239;-75
2022/08/17 00:08:45;;;;;;;14.95;12.77;;;23.40;99.90;;;;;;4992343;28;20211;-74
2022/08/17 00:11:15;;;;;;;14.45;12.98;;;23.30;99.90;;;;;;4997584;28;20212;-74
2022/08/17 00:13:45;;;;;;;16.10;13.52;;;23.30;99.90;;;;;;5002297;28;20211;-74
2022/08/17 00:16:16;;;;;;;15.07;12.68;;;23.30;99.90;;;;;;4995342;28;20204;-75
2022/08/17 00:18:43;;;;;;;15.57;13.30;;;23.30;99.90;;;;;;4998526;28;20200;-75
2022/08/17 00:21:11;;;;;;;16.75;13.32;;;23.30;99.90;;;;;;4999433;28;20231;-75
2022/08/17 00:23:40;;;;;;;15.40;13.52;;;23.20;99.90;;;;;;5010071;28;20586;-75
2022/08/17 00:26:09;;;;;;;15.27;13.70;;;23.20;99.90;;;;;;4996895;28;20672;-74
2022/08/17 00:28:36;;;;;;;15.60;12.93;;;23.10;99.90;;;;;;4998387;28;20297;-76
2022/08/17 00:31:03;;;;;;;16.17;13.20;;;23.10;99.90;;;;;;4997432;28;20544;-74
2022/08/17 00:33:32;;;;;;;15.55;13.25;;;23.10;99.90;;;;;;5005274;28;20207;-74
2022/08/17 00:35:59;;;;;;;17.95;14.13;;;23.10;99.90;;;;;;4997307;28;20696;-75
2022/08/17 00:38:28;;;;;;;20.15;13.40;;;23.00;99.90;;;;;;4991501;28;20691;-75
2022/08/17 00:40:56;;;;;;;15.38;13.65;;;23.00;99.90;;;;;;4991256;28;20215;-74
2022/08/17 00:43:30;;;;;;;15.98;13.30;;;23.00;99.90;;;;;;4996716;28;20214;-74
2022/08/17 00:45:59;;;;;;;15.00;13.48;;;23.00;99.90;;;;;;5004276;28;20214;-75
2022/08/17 00:48:25;;;;;;;15.05;12.35;;;23.00;99.90;;;;;;4999477;28;20215;-74
2022/08/17 00:50:57;;;;;;;16.08;13.07;;;23.00;99.90;;;;;;5011303;28;20218;-75
2022/08/17 00:53:25;;;;;;;15.23;13.63;;;22.90;99.90;;;;;;5000276;28;20252;-75
2022/08/17 00:55:53;;;;;;;14.52;12.82;;;22.90;99.90;;;;;;4991970;28;20669;-75
2022/08/17 00:58:20;;;;;;;18.02;13.50;;;22.90;99.90;;;;;;4990871;28;20254;-74
2022/08/17 01:00:48;;;;;;;17.35;13.45;;;22.90;99.90;;;;;;4995070;28;20212;-74
2022/08/17 01:03:19;;;;;;;17.83;13.32;;;22.90;99.90;;;;;;4995325;28;20210;-73
2022/08/17 01:05:48;;;;;;;14.70;12.77;;;23.00;99.90;;;;;;5007114;28;20214;-75
2022/08/17 01:08:18;;;;;;;15.10;13.48;;;22.90;99.90;;;;;;4996882;28;20571;-75
2022/08/17 01:10:49;;;;;;;15.32;13.15;;;23.00;99.90;;;;;;4993367;28;20204;-76
2022/08/17 01:13:17;;;;;;;15.23;13.57;;;22.90;99.90;;;;;;4994697;28;20223;-75
2022/08/17 01:16:02;;;;;;;16.83;13.68;;;23.00;99.90;;;;;;5005235;28;20212;-74
2022/08/17 01:18:30;;;;;;;14.52;13.10;;;23.00;99.90;;;;;;5007931;28;20204;-74
2022/08/17 01:21:02;;;;;;;17.27;13.38;;;23.00;99.90;;;;;;5011854;28;20248;-74
2022/08/17 01:23:31;;;;;;;16.20;13.48;;;23.00;99.90;;;;;;5001366;28;20240;-73
2022/08/17 01:26:01;;;;;;;15.40;12.30;;;23.00;99.90;;;;;;5004939;28;20618;-75
2022/08/17 01:28:31;;;;;;;16.88;12.32;;;22.90;99.90;;;;;;4994827;28;20208;-74
2022/08/17 01:31:00;;;;;;;16.20;11.75;;;22.90;99.90;;;;;;5009097;28;20203;-74
2022/08/17 01:33:27;;;;;;;13.88;11.10;;;22.90;99.90;;;;;;5008368;28;20217;-74
2022/08/17 01:35:55;;;;;;;14.38;10.88;;;22.80;99.90;;;;;;5008290;28;20229;-75
2022/08/17 01:38:23;;;;;;;13.30;11.30;;;22.80;99.90;;;;;;5007765;28;20214;-75
2022/08/17 01:40:56;;;;;;;12.77;11.55;;;22.70;99.90;;;;;;4994194;28;20216;-74
2022/08/17 01:43:28;;;;;;;13.68;12.18;;;22.60;99.90;;;;;;4994381;28;20266;-75
2022/08/17 01:45:58;;;;;;;15.52;12.20;;;22.60;99.90;;;;;;4999882;28;20203;-74
2022/08/17 01:48:29;;;;;;;13.63;12.23;;;22.60;99.90;;;;;;5007224;28;20238;-74
2022/08/17 01:50:56;;;;;;;14.38;12.57;;;22.60;99.90;;;;;;5004574;28;20200;-74
2022/08/17 01:53:26;;;;;;;13.75;12.35;;;22.50;99.90;;;;;;4995991;28;20631;-73
2022/08/17 01:55:58;;;;;;;13.82;12.35;;;22.60;99.90;;;;;;4999763;28;20223;-73
2022/08/17 01:58:25;;;;;;;14.18;12.27;;;22.50;99.90;;;;;;4993751;28;20212;-74
2022/08/17 02:00:53;;;;;;;15.10;12.80;;;22.60;99.90;;;;;;4993176;28;20208;-73
2022/08/17 02:03:21;;;;;;;13.35;11.90;;;22.50;99.90;;;;;;4999241;28;20230;-73
2022/08/17 02:05:48;;;;;;;18.08;13.27;;;22.60;99.90;;;;;;5002287;28;20251;-74
2022/08/17 02:08:15;;;;;;;13.63;12.02;;;22.50;99.90;;;;;;5012615;28;20211;-75
2022/08/17 02:10:42;;;;;;;14.10;12.70;;;22.50;99.90;;;;;;5007560;28;20212;-74
2022/08/17 02:13:10;;;;;;;13.38;12.15;;;22.50;99.90;;;;;;4999957;28;20657;-75
2022/08/17 02:15:37;;;;;;;13.57;12.07;;;22.50;99.90;;;;;;5002598;28;20235;-75
2022/08/17 02:18:05;;;;;;;16.40;11.00;;;22.40;99.90;;;;;;5008395;28;20230;-75
2022/08/17 02:20:32;;;;;;;11.43;10.32;;;22.40;99.90;;;;;;4995624;28;20773;-75
2022/08/17 02:23:02;;;;;;;14.27;10.18;;;22.40;99.90;;;;;;4997446;28;20323;-75
2022/08/17 02:25:32;;;;;;;12.25;10.70;;;22.30;99.90;;;;;;4995147;28;20222;-75
2022/08/17 02:27:59;;;;;;;13.00;11.20;;;22.30;99.90;;;;;;4995635;28;20204;-75
2022/08/17 02:30:27;;;;;;;12.05;9.45;;;22.30;99.90;;;;;;4992407;28;20207;-75
2022/08/17 02:32:55;;;;;;;12.15;10.88;;;22.30;99.90;;;;;;4994911;28;20200;-74
2022/08/17 02:35:22;;;;;;;13.02;10.82;;;22.30;99.90;;;;;;5002918;28;20482;-74
2022/08/17 02:37:50;;;;;;;10.80;9.70;;;22.30;99.90;;;;;;4990825;28;20223;-74
2022/08/17 02:40:17;;;;;;;13.02;10.38;;;22.20;99.90;;;;;;4992293;28;20623;-74
2022/08/17 02:42:45;;;;;;;12.52;10.25;;;22.20;99.90;;;;;;5005338;28;20778;-75
2022/08/17 02:45:15;;;;;;;11.77;9.77;;;22.20;99.90;;;;;;5005047;28;20547;-75
2022/08/17 02:47:43;;;;;;;11.88;9.20;;;22.20;99.90;;;;;;4999822;28;20225;-75
2022/08/17 02:50:12;;;;;;;12.07;10.25;;;22.20;99.90;;;;;;5011768;28;20211;-75
2022/08/17 02:52:42;;;;;;;11.52;10.02;;;22.20;99.90;;;;;;5000905;28;20204;-75
2022/08/17 02:55:14;;;;;;;13.82;9.82;;;22.20;99.90;;;;;;4991285;28;20700;-75
2022/08/17 02:57:41;;;;;;;12.52;10.85;;;22.10;99.90;;;;;;4998539;28;20242;-75
2022/08/17 03:00:12;;;;;;;11.32;9.75;;;22.10;99.90;;;;;;4997951;28;20214;-73
2022/08/17 03:02:39;;;;;;;12.00;9.98;;;22.10;99.90;;;;;;5009329;28;20229;-74
2022/08/17 03:05:08;;;;;;;14.68;10.40;;;22.10;99.90;;;;;;4996308;28;20207;-75
2022/08/17 03:07:36;;;;;;;14.68;11.95;;;22.10;99.90;;;;;;5004194;28;20211;-75
2022/08/17 03:10:03;;;;;;;10.85;9.85;;;22.10;99.90;;;;;;4997277;28;20207;-75
2022/08/17 03:12:33;;;;;;;11.70;10.20;;;22.10;99.90;;;;;;4997241;28;20214;-75
2022/08/17 03:15:03;;;;;;;12.55;10.25;;;22.10;99.90;;;;;;4998429;28;20696;-74
2022/08/17 03:17:30;;;;;;;15.98;10.07;;;22.10;99.90;;;;;;5006901;28;20690;-74
2022/08/17 03:19:57;;;;;;;11.80;10.55;;;22.00;99.90;;;;;;5011547;28;20580;-74
2022/08/17 03:22:27;;;;;;;13.02;10.35;;;22.10;99.90;;;;;;4993151;28;20700;-74
2022/08/17 03:24:53;;;;;;;11.57;9.73;;;22.10;99.90;;;;;;4997414;28;20219;-75
2022/08/17 03:27:20;;;;;;;11.65;10.45;;;22.10;99.90;;;;;;5007150;28;20208;-75
2022/08/17 03:29:47;;;;;;;16.85;10.43;;;22.10;99.90;;;;;;4991075;28;20220;-76
2022/08/17 03:32:16;;;;;;;13.50;10.43;;;22.00;99.90;;;;;;4995848;28;20200;-74
2022/08/17 03:34:43;;;;;;;16.05;9.68;;;22.00;99.90;;;;;;5005494;28;20210;-73
2022/08/17 03:37:10;;;;;;;11.63;9.90;;;22.00;99.90;;;;;;4991842;28;20212;-75
2022/08/17 03:39:38;;;;;;;10.93;9.32;;;22.10;99.90;;;;;;4993710;28;20219;-73
2022/08/17 03:42:09;;;;;;;14.23;10.27;;;22.00;99.90;;;;;;4991467;28;20235;-74
2022/08/17 03:44:36;;;;;;;13.88;9.85;;;22.00;99.90;;;;;;4995003;28;20203;-74
2022/08/17 03:58:00;;;;;;;16.27;10.45;;;21.90;99.90;;;;;;4990316;28;20243;-74
2022/08/17 04:00:27;;;;;;;11.18;10.00;;;21.90;99.90;;;;;;5004807;28;20215;-74
2022/08/17 04:02:54;;;;;;;11.55;10.27;;;21.90;99.90;;;;;;5001511;28;20254;-74
2022/08/17 04:05:21;;;;;;;11.10;9.70;;;21.90;99.90;;;;;;4992695;28;20681;-74
2022/08/17 04:07:48;;;;;;;11.85;10.13;;;21.90;99.90;;;;;;5000608;28;20617;-74
2022/08/17 04:10:16;;;;;;;10.88;9.63;;;21.90;99.90;;;;;;5007418;28;20261;-75
2022/08/17 04:12:45;;;;;;;12.48;9.73;;;22.00;99.90;;;;;;4990431;28;20208;-74
2022/08/17 04:15:12;;;;;;;12.50;9.77;;;22.00;99.90;;;;;;4996781;28;20267;-74
2022/08/17 04:17:39;;;;;;;13.82;10.05;;;22.00;99.90;;;;;;5000434;28;20212;-74
2022/08/17 04:20:07;;;;;;;12.07;9.35;;;22.10;99.90;;;;;;4999949;28;20297;-74
2022/08/17 04:22:34;;;;;;;11.07;9.07;;;22.20;99.90;;;;;;4991039;28;20327;-74
2022/08/17 04:25:06;;;;;;;10.32;8.82;;;22.30;99.90;;;;;;5002227;28;20215;-75
2022/08/17 04:27:34;;;;;;;11.52;9.05;;;22.40;99.90;;;;;;4996067;28;20192;-74
2022/08/17 04:30:01;;;;;;;14.32;8.90;;;22.40;99.90;;;;;;5002102;28;20307;-75
2022/08/17 04:32:28;;;;;;;10.45;9.18;;;22.50;99.90;;;;;;5004977;28;20200;-74
2022/08/17 04:34:55;;;;;;;12.38;9.07;;;22.50;99.90;;;;;;5003638;28;20669;-74
2022/08/17 04:37:22;;;;;;;10.63;8.52;;;22.50;99.90;;;;;;4995808;28;20219;-74
2022/08/17 04:42:05;;;;;;;12.88;8.52;;;22.50;99.90;;;;;;4993565;28;20227;-74
2022/08/17 04:42:36;;;;;;;9.70;7.70;;;22.50;99.90;;;;;;4999322;28;20577;-73
2022/08/17 04:45:03;;;;;;;10.85;8.20;;;22.60;99.90;;;;;;4992597;28;20327;-72
2022/08/17 04:47:30;;;;;;;11.27;8.07;;;22.60;99.90;;;;;;4998143;28;20235;-74
2022/08/17 04:50:00;;;;;;;9.27;7.40;;;22.60;99.90;;;;;;4996963;28;20210;-74
2022/08/17 04:52:27;;;;;;;10.82;8.25;;;22.70;99.90;;;;;;4994177;28;20266;-75
2022/08/17 04:54:53;;;;;;;9.77;8.07;;;22.60;99.90;;;;;;4995911;28;20203;-74
2022/08/17 04:57:20;;;;;;;9.77;8.23;;;22.70;99.90;;;;;;4994301;28;20236;-74
2022/08/17 04:59:48;;;;;;;8.40;7.50;;;22.70;99.90;;;;;;4996171;28;20218;-74
2022/08/17 05:02:15;;;;;;;9.38;7.90;;;22.80;99.90;;;;;;5003624;28;20211;-74
2022/08/17 05:04:42;;;;;;;9.45;7.75;;;22.80;99.90;;;;;;4994210;28;20211;-74
2022/08/17 05:07:09;;;;;;;13.18;8.15;;;22.90;99.90;;;;;;5007496;28;20268;-74
2022/08/17 05:09:36;;;;;;;10.30;8.23;;;23.00;99.90;;;;;;4993658;28;20210;-68
2022/08/17 05:12:04;;;;;;;11.60;7.78;;;23.00;99.90;;;;;;5007831;28;20208;-69
2022/08/17 05:14:31;;;;;;;9.80;7.97;;;23.10;99.90;;;;;;5002210;28;20207;-69
2022/08/17 05:16:59;;;;;;;11.93;7.57;;;23.10;99.90;;;;;;5007060;28;20214;-69
2022/08/17 05:19:26;;;;;;;11.18;8.57;;;23.20;99.90;;;;;;5013296;28;20215;-75
2022/08/17 05:21:53;;;;;;;11.00;7.80;;;23.20;99.90;;;;;;5013246;28;20227;-76
2022/08/17 05:24:20;;;;;;;10.65;8.20;;;23.20;99.90;;;;;;4993991;28;20224;-75
2022/08/17 05:26:46;;;;;;;9.55;8.55;;;23.30;99.90;;;;;;5000773;28;20210;-75
2022/08/17 05:29:13;;;;;;;9.90;7.85;;;23.30;99.90;;;;;;5000331;28;20204;-75
2022/08/17 05:31:40;;;;;;;12.27;8.07;;;23.30;99.90;;;;;;5004408;28;20652;-74
2022/08/17 05:34:08;;;;;;;13.75;8.27;;;23.30;99.90;;;;;;5011055;28;20214;-75
2022/08/17 05:36:37;;;;;;;12.27;8.25;;;23.30;99.90;;;;;;5013295;28;20207;-75
2022/08/17 05:39:04;;;;;;;11.88;9.00;;;23.40;99.90;;;;;;5001895;28;20247;-77
2022/08/17 05:41:30;;;;;;;9.23;7.93;;;23.50;99.90;;;;;;5014771;28;20230;-73
2022/08/17 05:43:57;;;;;;;10.73;8.85;;;23.50;99.90;;;;;;5008520;28;20685;-76
2022/08/17 05:46:26;;;;;;;9.05;8.20;;;23.50;99.90;;;;;;5014687;28;20710;-76
2022/08/17 05:48:56;;;;;;;10.07;8.05;;;23.60;99.90;;;;;;5014504;28;20203;-71
2022/08/17 05:51:46;;;;;;;11.70;8.25;;;23.60;99.90;;;;;;5012583;28;20203;-76
2022/08/17 05:54:25;;;;;;;9.55;7.75;;;23.60;99.90;;;;;;4998257;28;20209;-76
2022/08/17 05:57:07;;;;;;;9.93;7.85;;;23.70;99.90;;;;;;5008738;28;20246;-76
2022/08/17 05:59:44;;;;;;;11.38;7.70;;;23.70;99.90;;;;;;5007153;28;20199;-76
2022/08/17 06:02:20;;;;;;;10.25;7.50;;;23.70;99.90;;;;;;5011794;28;20199;-71
2022/08/17 06:05:05;;;;;;;10.98;7.55;;;23.80;99.90;;;;;;5013836;28;20207;-76
2022/08/17 06:07:41;;;;;;;10.75;7.70;;;24.00;99.90;;;;;;5006853;28;20221;-78
2022/08/17 06:10:14;;;;;;;9.98;7.18;;;24.10;99.90;;;;;;5015079;28;20211;-77
2022/08/17 06:12:54;;;;;;;11.90;8.05;;;24.20;99.90;;;;;;4998270;28;20313;-76
2022/08/17 06:15:32;;;;;;;8.43;7.00;;;24.40;99.90;;;;;;5011239;28;20632;-67
2022/08/17 06:18:02;;;;;;;9.98;7.32;;;24.60;99.90;;;;;;5015459;28;20295;-77
2022/08/17 06:20:38;;;;;;;10.73;7.75;;;24.80;99.90;;;;;;5013940;28;20214;-77
2022/08/17 06:23:11;;;;;;;8.02;6.75;;;24.90;99.90;;;;;;5013471;28;20226;-75
2022/08/17 06:25:44;;;;;;;8.82;7.28;;;25.00;99.90;;;;;;5011604;28;20200;-75
2022/08/17 06:28:15;;;;;;;9.13;7.15;;;25.20;99.90;;;;;;5006669;28;20214;-72
2022/08/17 06:30:47;;;;;;;10.73;7.38;;;25.40;99.90;;;;;;5002591;28;20208;-74
2022/08/17 06:33:20;;;;;;;9.85;7.32;;;25.50;99.90;;;;;;5011211;28;20200;-76
2022/08/17 06:36:03;;;;;;;9.25;7.13;;;25.60;99.90;;;;;;5016378;28;20250;-74
2022/08/17 06:38:41;;;;;;;8.45;6.50;;;25.60;99.90;;;;;;5017403;28;20206;-76
2022/08/17 06:41:15;;;;;;;8.48;6.65;;;25.70;99.90;;;;;;5012093;28;20567;-78
2022/08/17 06:43:56;;;;;;;9.38;6.75;;;25.80;99.90;;;;;;5012180;28;20219;-75
2022/08/17 06:46:27;;;;;;;9.90;5.72;;;25.90;99.90;;;;;;5006579;28;20226;-75
2022/08/17 06:49:09;;;;;;;8.55;6.75;;;25.90;99.90;;;;;;5011556;28;20204;-76
2022/08/17 06:51:41;;;;;;;6.88;6.15;;;26.00;99.90;;;;;;5010593;28;20204;-74
2022/08/17 06:54:16;;;;;;;8.57;6.15;;;26.00;99.90;;;;;;5012921;28;20679;-73
2022/08/17 06:56:47;;;;;;;14.77;7.03;;;26.00;99.90;;;;;;5008816;28;20242;-76
2022/08/17 06:59:19;;;;;;;9.18;6.20;;;25.90;99.90;;;;;;5012852;28;20588;-67
2022/08/17 07:01:48;;;;;;;15.82;8.63;;;25.70;99.90;;;;;;5009730;28;20560;-70
2022/08/17 07:04:23;;;;;;;9.95;5.45;;;25.70;99.90;;;;;;5005500;28;20234;-69
2022/08/17 07:06:53;;;;;;;9.02;6.25;;;25.70;99.90;;;;;;5001129;28;20203;-66
2022/08/17 07:09:26;;;;;;;11.90;6.78;;;25.70;99.90;;;;;;5006377;28;20211;-67
2022/08/17 07:11:58;;;;;;;7.65;5.80;;;25.70;99.90;;;;;;5003492;28;20215;-66
2022/08/17 07:14:35;;;;;;;9.20;6.32;;;25.70;99.90;;;;;;5002509;28;20196;-68
2022/08/17 07:17:06;;;;;;;7.75;6.47;;;25.70;99.90;;;;;;5003981;28;20234;-68
2022/08/17 07:19:36;;;;;;;10.75;6.72;;;25.70;99.90;;;;;;5008351;28;20244;-68
2022/08/17 07:22:14;;;;;;;7.28;5.78;;;25.80;99.90;;;;;;5009992;28;20696;-68
2022/08/17 07:24:48;;;;;;;9.90;6.75;;;25.80;99.90;;;;;;5009707;28;20223;-68
2022/08/17 07:27:19;;;;;;;10.43;6.93;;;25.90;99.90;;;;;;5010741;28;20291;-68
2022/08/17 07:29:49;;;;;;;10.10;6.70;;;26.10;99.90;;;;;;5010838;28;20226;-68
2022/08/17 07:32:20;;;;;;;9.57;6.78;;;26.20;99.90;;;;;;5010735;28;20628;-68
2022/08/17 07:35:14;;;;;;;10.98;8.10;;;26.20;99.90;;;;;;5001846;28;20204;-69
2022/08/17 07:37:43;;;;;;;6.88;6.28;;;26.30;99.90;;;;;;4993301;28;21505;-68
2022/08/17 07:40:28;;;;;;;8.13;6.43;;;26.50;99.90;;;;;;5005001;28;20703;-67
2022/08/17 07:43:17;;;;;;;8.80;7.05;;;26.40;99.90;;;;;;4992115;28;20215;-68
2022/08/17 07:48:57;;;;;;;8.93;6.30;;;26.30;99.90;;;;;;5010684;28;20202;-68
2022/08/17 07:51:29;;;;;;;7.20;6.50;;;26.50;99.90;;;;;;4995571;28;20662;-68
2022/08/17 07:54:00;;;;;;;8.65;6.30;;;26.80;99.90;;;;;;4997449;28;20195;-68
2022/08/17 07:56:45;;;;;;;6.72;6.03;;;27.10;99.90;;;;;;5012118;28;20230;-68
2022/08/17 07:59:16;;;;;;;7.40;6.70;;;27.20;99.90;;;;;;5002037;28;20203;-68
2022/08/17 08:01:47;;;;;;;9.90;6.78;;;27.20;99.90;;;;;;4996354;28;20212;-68
2022/08/17 08:04:31;;;;;;;9.30;6.28;;;27.20;99.90;;;;;;4992833;28;20219;-69
2022/08/17 08:07:01;;;;;;;8.35;6.53;;;27.30;99.90;;;;;;4995115;28;20192;-68
2022/08/17 08:09:31;;;;;;;7.70;6.22;;;27.50;99.90;;;;;;5001182;28;20223;-69
2022/08/17 08:12:02;;;;;;;10.90;7.25;;;27.60;99.90;;;;;;4993509;28;20211;-69
2022/08/17 08:14:32;;;;;;;10.57;6.15;;;27.60;99.90;;;;;;4999592;28;20562;-67
2022/08/17 08:17:03;;;;;;;8.15;6.38;;;27.70;99.90;;;;;;5004414;28;20199;-69
2022/08/17 08:19:31;;;;;;;9.98;6.35;;;27.80;99.90;;;;;;4998325;28;20664;-68
2022/08/17 08:22:06;;;;;;;9.15;6.53;;;28.00;99.90;;;;;;4994603;28;20227;-69
2022/08/17 08:24:52;;;;;;;9.18;6.85;;;28.00;99.90;;;;;;4990283;28;20230;-69
2022/08/17 08:27:30;;;;;;;7.40;6.53;;;28.10;99.90;;;;;;4990494;28;20779;-68
2022/08/17 08:30:04;;;;;;;6.32;5.72;;;28.20;99.90;;;;;;4989752;28;20616;-69
2022/08/17 08:32:41;;;;;;;6.75;5.15;;;28.20;99.90;;;;;;4990445;28;20210;-69
2022/08/17 08:35:13;;;;;;;9.48;5.53;;;28.30;99.90;;;;;;4990487;28;20211;-69
2022/08/17 08:37:48;;;;;;;9.25;5.60;;;28.40;99.90;;;;;;5001725;28;20199;-69
2022/08/17 08:40:39;;;;;;;7.57;5.00;;;28.50;99.90;;;;;;4994702;28;20661;-69
2022/08/17 08:43:20;;;;;;;7.95;6.00;;;28.50;99.90;;;;;;4989720;28;20211;-68
2022/08/17 08:45:57;;;;;;;8.68;5.93;;;28.50;99.90;;;;;;5001681;28;20633;-68
2022/08/17 08:48:55;;;;;;;7.47;5.32;;;28.60;99.90;;;;;;4995531;28;20583;-67
2022/08/17 08:51:33;;;;;;;8.10;5.22;;;28.80;99.90;;;;;;4995842;28;20200;-68
2022/08/17 08:54:09;;;;;;;8.82;5.30;;;29.00;99.90;;;;;;5002078;28;20219;-69
2022/08/17 08:56:41;;;;;;;9.60;5.47;;;29.20;99.90;;;;;;5003856;28;20242;-68
2022/08/17 08:59:20;;;;;;;6.35;4.60;;;29.30;99.90;;;;;;4990682;28;20208;-68
2022/08/17 09:01:59;;;;;;;8.07;5.13;;;29.50;99.90;;;;;;5003030;28;20191;-68
2022/08/17 09:04:44;;;;;;;5.55;4.00;;;29.50;99.90;;;;;;5000920;28;20270;-68
2022/08/17 09:07:23;;;;;;;6.10;4.43;;;29.60;99.90;;;;;;5005360;28;20235;-69
2022/08/17 09:09:59;;;;;;;5.25;4.43;;;29.50;99.90;;;;;;4990685;28;20203;-69
2022/08/17 09:12:33;;;;;;;6.97;4.97;;;29.50;99.90;;;;;;4991892;28;20238;-69
2022/08/17 09:15:06;;;;;;;5.40;4.75;;;29.60;99.90;;;;;;4991727;28;20210;-69
2022/08/17 09:17:39;;;;;;;7.57;4.72;;;29.90;99.90;;;;;;5001112;28;20595;-68
2022/08/17 09:20:15;;;;;;;7.30;4.97;;;30.20;99.90;;;;;;5004364;28;20214;-69
2022/08/17 09:22:44;;;;;;;6.22;4.80;;;30.30;99.90;;;;;;5004619;28;20227;-68
2022/08/17 09:25:16;;;;;;;6.40;4.75;;;30.50;99.90;;;;;;5003955;28;20231;-68
2022/08/17 09:27:53;;;;;;;8.40;4.63;;;30.60;99.90;;;;;;5004925;28;20248;-68
2022/08/17 09:30:22;;;;;;;9.52;5.55;;;30.60;99.90;;;;;;5005166;28;20218;-68
2022/08/17 09:32:54;;;;;;;11.10;4.63;;;30.60;99.90;;;;;;5013877;28;20204;-67
2022/08/17 09:35:23;;;;;;;6.90;5.05;;;30.50;99.90;;;;;;5004843;28;20204;-69
2022/08/17 09:38:00;;;;;;;6.90;5.43;;;30.40;99.90;;;;;;4996571;28;20591;-68
2022/08/17 09:40:30;;;;;;;7.25;5.60;;;30.40;99.90;;;;;;5005502;28;20204;-68
2022/08/17 09:43:03;;;;;;;7.13;5.53;;;30.40;99.90;;;;;;4994960;28;20208;-68
2022/08/17 09:45:38;;;;;;;8.35;5.00;;;30.30;99.90;;;;;;5002922;28;20211;-68
2022/08/17 09:48:11;;;;;;;5.13;4.40;;;30.30;99.90;;;;;;5000548;28;20568;-68
2022/08/17 09:50:43;;;;;;;6.70;5.13;;;30.40;99.90;;;;;;5002363;28;20560;-65
2022/08/17 09:53:10;;;;;;;11.35;5.47;;;30.60;99.90;;;;;;4996865;28;20290;-65
2022/08/17 09:56:02;;;;;;;7.18;5.30;;;30.70;99.50;;;;;;5004736;28;20222;-66
2022/08/17 09:58:40;;;;;;;5.70;4.93;;;30.80;99.80;;;;;;5002146;28;20593;-67
2022/08/17 10:01:22;;;;;;;7.93;5.05;;;30.90;98.90;;;;;;5004164;28;20195;-67
2022/08/17 10:04:05;;;;;;;6.53;4.88;;;31.10;99.40;;;;;;4995602;28;20596;-67
2022/08/17 10:06:50;;;;;;;6.00;5.40;;;31.40;98.20;;;;;;5003112;28;20211;-67
2022/08/17 10:09:27;;;;;;;5.72;5.05;;;31.90;97.40;;;;;;4999003;28;20211;-68
2022/08/17 10:14:59;;;;;;;11.88;5.47;;;31.90;95.60;;;;;;5001186;28;20337;-65
2022/08/17 10:17:40;;;;;;;6.72;4.93;;;31.70;95.70;;;;;;5010256;28;20211;-67
2022/08/17 10:20:12;;;;;;;7.03;4.70;;;31.70;96.00;;;;;;5010799;28;20202;-65
2022/08/17 10:28:14;;;;;;;7.93;4.97;;;31.50;94.50;;;;;;4990210;28;20215;-67
2022/08/17 10:30:48;;;;;;;7.55;5.32;;;31.40;94.70;;;;;;5008779;28;20207;-66
2022/08/17 10:33:22;;;;;;;6.10;5.00;;;31.20;94.80;;;;;;5010969;28;20207;-69
2022/08/17 10:35:57;;;;;;;5.60;4.50;;;31.30;94.70;;;;;;4999186;28;20204;-66
2022/08/17 10:38:45;;;;;;;6.93;5.15;;;31.40;94.20;;;;;;4996017;28;20195;-66
2022/08/17 10:41:23;;;;;;;7.20;5.22;;;31.60;94.00;;;;;;5005616;28;20196;-67
2022/08/17 10:43:59;;;;;;;8.13;5.00;;;31.80;93.60;;;;;;5000216;28;20206;-67
2022/08/17 10:46:42;;;;;;;5.72;5.15;;;31.90;93.50;;;;;;5008701;28;20230;-64
2022/08/17 10:49:26;;;;;;;5.47;4.97;;;32.30;92.90;;;;;;5002148;28;20222;-66
2022/08/17 10:51:54;;;;;;;7.07;5.03;;;32.80;91.80;;;;;;5005464;28;20196;-66
2022/08/17 10:54:36;;;;;;;11.57;5.20;;;33.20;91.20;;;;;;5009284;28;20211;-67
2022/08/17 10:57:33;;;;;;;5.88;4.93;;;33.60;89.10;;;;;;4991179;28;20239;-65
2022/08/17 11:00:02;;;;;;;7.45;5.10;;;33.80;87.40;;;;;;4997322;28;20204;-66
2022/08/17 11:02:30;;;;;;;6.78;4.93;;;34.10;87.20;;;;;;5004413;28;20207;-66
2022/08/17 11:05:23;;;;;;;6.57;4.85;;;34.30;85.20;;;;;;5005562;28;20223;-66
2022/08/17 11:08:14;;;;;;;5.18;4.57;;;34.30;82.40;;;;;;5002021;28;20688;-66
2022/08/17 11:10:58;;;;;;;6.60;4.38;;;33.90;80.90;;;;;;4990274;28;20669;-65
2022/08/17 11:13:37;;;;;;;5.63;4.30;;;33.30;80.80;;;;;;4992466;28;20593;-67
2022/08/17 11:16:20;;;;;;;5.28;4.50;;;32.80;82.70;;;;;;4995901;28;20195;-66
2022/08/17 11:19:19;;;;;;;6.07;4.68;;;32.40;83.60;;;;;;5005961;28;20203;-66
2022/08/17 11:22:05;;;;;;;7.47;5.07;;;32.20;85.40;;;;;;4992145;28;20687;-66
2022/08/17 11:24:35;;;;;;;7.18;5.05;;;32.40;85.80;;;;;;4989545;28;20220;-68
2022/08/17 11:27:08;;;;;;;5.65;4.53;;;32.70;84.60;;;;;;5000168;28;20265;-65
2022/08/17 11:29:38;;;;;;;5.57;4.97;;;32.80;85.00;;;;;;4998430;28;20773;-66
2022/08/17 11:32:12;;;;;;;6.28;4.88;;;33.00;84.60;;;;;;5002103;28;20204;-66
2022/08/17 11:34:42;;;;;;;6.68;5.10;;;33.40;83.50;;;;;;5005980;28;20206;-65
2022/08/17 11:37:41;;;;;;;6.88;4.85;;;34.00;82.20;;;;;;5005608;28;20207;-68
2022/08/17 11:40:41;;;;;;;7.65;4.32;;;34.80;79.80;;;;;;5006672;28;20206;-66
2022/08/17 11:43:44;;;;;;;5.78;4.72;;;35.10;76.00;;;;;;5008433;28;20699;-65
2022/08/17 11:46:20;;;;;;;5.93;5.15;;;35.10;74.90;;;;;;5003600;28;20260;-65
2022/08/17 11:52:13;;;;;;;5.97;5.38;;;34.50;74.50;;;;;;5007886;28;20222;-65
2022/08/17 11:54:44;;;;;;;6.90;4.90;;;34.10;75.20;;;;;;5004459;28;20207;-65
2022/08/17 11:57:54;;;;;;;6.97;5.07;;;33.90;75.00;;;;;;4999835;28;20651;-66
2022/08/17 12:00:47;;;;;;;6.85;4.60;;;33.50;75.60;;;;;;5007653;28;20274;-66
2022/08/17 12:03:47;;;;;;;6.63;4.97;;;33.20;77.20;;;;;;5002848;28;20608;-65
2022/08/17 12:06:39;;;;;;;6.72;4.60;;;32.90;77.50;;;;;;5004269;28;20298;-66
2022/08/17 12:09:12;;;;;;;5.32;4.53;;;32.50;77.50;;;;;;5007230;28;20199;-66
2022/08/17 12:11:46;;;;;;;6.78;4.45;;;32.40;77.70;;;;;;4996822;28;20199;-72
2022/08/17 12:14:16;;;;;;;8.00;4.50;;;32.40;77.70;;;;;;5001005;28;20609;-67
2022/08/17 12:16:43;;;;;;;8.13;4.32;;;32.60;76.90;;;;;;5000994;28;20203;-64
2022/08/17 12:19:19;;;;;;;12.85;5.45;;;32.80;76.70;;;;;;4997066;28;21714;-66
2022/08/17 12:21:53;;;;;;;9.27;5.15;;;33.10;76.90;;;;;;4993912;28;20315;-65
2022/08/17 12:24:34;;;;;;;9.75;4.80;;;33.30;75.70;;;;;;5005652;28;20692;-66
2022/08/17 12:27:05;;;;;;;8.43;4.68;;;33.60;75.20;;;;;;4995279;28;20204;-65
2022/08/17 12:29:34;;;;;;;8.55;5.05;;;33.90;73.70;;;;;;5004358;28;20592;-66
2022/08/17 12:32:02;;;;;;;9.02;4.88;;;34.40;73.70;;;;;;5000844;28;20672;-66
2022/08/17 12:34:36;;;;;;;8.57;5.05;;;34.80;71.90;;;;;;5008414;28;20254;-67
2022/08/17 12:37:06;;;;;;;8.02;6.30;;;35.10;70.80;;;;;;4997652;28;20202;-66
2022/08/17 12:39:33;;;;;;;6.03;4.72;;;34.80;71.00;;;;;;5006028;28;20659;-67
2022/08/17 12:42:03;;;;;;;11.73;5.30;;;34.20;72.80;;;;;;5002924;28;20667;-67
2022/08/17 12:44:31;;;;;;;8.70;5.30;;;33.60;74.20;;;;;;4997921;28;20535;-67
2022/08/17 12:47:13;;;;;;;10.88;5.50;;;33.10;75.70;;;;;;5003050;28;20234;-66
2022/08/17 12:49:42;;;;;;;8.75;4.88;;;32.70;76.90;;;;;;4996776;28;20237;-68
2022/08/17 12:52:15;;;;;;;8.05;5.50;;;32.20;78.00;;;;;;5000930;28;20211;-67
2022/08/17 12:54:49;;;;;;;10.77;5.53;;;31.90;79.40;;;;;;4996748;28;20595;-67
2022/08/17 12:57:21;;;;;;;7.45;5.50;;;31.50;80.50;;;;;;5001648;28;20245;-67
2022/08/17 12:59:51;;;;;;;6.68;5.93;;;31.20;81.60;;;;;;5008644;28;20576;-67
2022/08/17 13:02:42;;;;;;;8.93;5.85;;;31.10;82.40;;;;;;5002668;28;20206;-66
2022/08/17 13:05:17;;;;;;;8.18;5.45;;;31.10;82.70;;;;;;5005411;28;20235;-68
2022/08/17 13:07:46;;;;;;;9.10;5.28;;;30.90;83.00;;;;;;5012551;28;20237;-68
2022/08/17 13:10:20;;;;;;;10.18;5.70;;;31.00;83.10;;;;;;5009388;28;20249;-67
2022/08/17 13:12:50;;;;;;;8.18;5.28;;;31.20;83.20;;;;;;5012686;28;20290;-67
2022/08/17 13:15:23;;;;;;;9.93;5.20;;;31.50;82.60;;;;;;5011614;28;20203;-67
2022/08/17 13:18:06;;;;;;;11.75;5.35;;;31.90;81.40;;;;;;5008458;28;20215;-68
2022/08/17 13:20:33;;;;;;;7.15;5.40;;;32.20;79.90;;;;;;5002634;28;20207;-67
2022/08/17 13:23:02;;;;;;;7.22;4.97;;;32.30;78.90;;;;;;5010526;28;20223;-68
2022/08/17 13:25:30;;;;;;;9.20;4.93;;;32.40;78.10;;;;;;5012809;28;20231;-67
2022/08/17 13:27:59;;;;;;;8.05;5.40;;;32.50;77.70;;;;;;5007368;28;20215;-67
2022/08/17 13:30:31;;;;;;;10.02;5.80;;;32.60;77.20;;;;;;5012304;28;20215;-68
2022/08/17 13:32:58;;;;;;;9.55;5.22;;;32.70;77.30;;;;;;5007721;28;20207;-68